WJA232 CYYC-CYWG
Flight info
| Callsign | WJA232 |
|---|---|
| Flight time | 1h 42m |
| Altitude | 37000 |
| Route | DCT LOMLO Q961 DAPOP DCT DURUR DCT SEGAP BEFAN5 |
| Aircraft | B738/M-SDE2E3FGHIRWXY/LB1 |
Departure
| Time | 2026-05-06 01:36 |
|---|---|
| Airport | Calgary International Airport (CYYC) |
Arrival
| Time | 2026-05-06 03:18 |
|---|---|
| Airport | Winnipeg / James Armstrong Richardson International Airport (CYWG) |
| Time | Latitude | Longitude | Altitude | Speed | Heading |
|---|---|---|---|---|---|
| 2026-05-06 01:01 | 51.12853 | -114.00492 | 3558 ft | 0 kts | 78° |
| 2026-05-06 01:15 | 51.12850 | -114.00515 | 3568 ft | 4 kts | 85° |
| 2026-05-06 01:16 | 51.12850 | -114.00557 | 3558 ft | 4 kts | 102° |
| 2026-05-06 01:16 | 51.12859 | -114.00596 | 3553 ft | 4 kts | 122° |
| 2026-05-06 01:16 | 51.12870 | -114.00618 | 3557 ft | 4 kts | 138° |
| 2026-05-06 01:16 | 51.12897 | -114.00641 | 3554 ft | 2 kts | 180° |
| 2026-05-06 01:17 | 51.12899 | -114.00641 | 3558 ft | 1 kts | 181° |
| 2026-05-06 01:21 | 51.12898 | -114.00641 | 3558 ft | 1 kts | 181° |
| 2026-05-06 01:21 | 51.12870 | -114.00642 | 3552 ft | 7 kts | 181° |
| 2026-05-06 01:22 | 51.12819 | -114.00642 | 3558 ft | 8 kts | 180° |
| 2026-05-06 01:22 | 51.12767 | -114.00648 | 3558 ft | 8 kts | 197° |
| 2026-05-06 01:22 | 51.12740 | -114.00710 | 3558 ft | 7 kts | 266° |
| 2026-05-06 01:22 | 51.12720 | -114.00778 | 3557 ft | 7 kts | 212° |
| 2026-05-06 01:23 | 51.12673 | -114.00793 | 3557 ft | 7 kts | 185° |
| 2026-05-06 01:23 | 51.12629 | -114.00811 | 3558 ft | 7 kts | 217° |
| 2026-05-06 01:23 | 51.12613 | -114.00879 | 3558 ft | 7 kts | 270° |
| 2026-05-06 01:23 | 51.12613 | -114.00979 | 3558 ft | 11 kts | 270° |
| 2026-05-06 01:24 | 51.12608 | -114.01111 | 3555 ft | 12 kts | 264° |
| 2026-05-06 01:24 | 51.12602 | -114.01244 | 3558 ft | 12 kts | 271° |
| 2026-05-06 01:24 | 51.12603 | -114.01375 | 3558 ft | 12 kts | 270° |
| 2026-05-06 01:24 | 51.12583 | -114.01491 | 3558 ft | 11 kts | 225° |
| 2026-05-06 01:25 | 51.12522 | -114.01562 | 3558 ft | 11 kts | 200° |
| 2026-05-06 01:25 | 51.12448 | -114.01569 | 3558 ft | 11 kts | 180° |
| 2026-05-06 01:25 | 51.12374 | -114.01568 | 3558 ft | 11 kts | 180° |
| 2026-05-06 01:25 | 51.12283 | -114.01569 | 3556 ft | 15 kts | 180° |
| 2026-05-06 01:26 | 51.12181 | -114.01573 | 3557 ft | 14 kts | 188° |
| 2026-05-06 01:26 | 51.12094 | -114.01624 | 3558 ft | 13 kts | 210° |
| 2026-05-06 01:26 | 51.12015 | -114.01696 | 3558 ft | 13 kts | 210° |
| 2026-05-06 01:26 | 51.11940 | -114.01765 | 3558 ft | 13 kts | 210° |
| 2026-05-06 01:27 | 51.11867 | -114.01797 | 3558 ft | 11 kts | 182° |
| 2026-05-06 01:27 | 51.11793 | -114.01798 | 3556 ft | 11 kts | 181° |
| 2026-05-06 01:27 | 51.11722 | -114.01797 | 3558 ft | 10 kts | 179° |
| 2026-05-06 01:27 | 51.11654 | -114.01797 | 3558 ft | 10 kts | 180° |
| 2026-05-06 01:28 | 51.11588 | -114.01797 | 3558 ft | 9 kts | 180° |
| 2026-05-06 01:28 | 51.11540 | -114.01797 | 3558 ft | 5 kts | 180° |
| 2026-05-06 01:28 | 51.11531 | -114.01797 | 3557 ft | 0 kts | 180° |
| 2026-05-06 01:29 | 51.11520 | -114.01797 | 3558 ft | 5 kts | 180° |
| 2026-05-06 01:29 | 51.11443 | -114.01797 | 3558 ft | 17 kts | 180° |
| 2026-05-06 01:29 | 51.11324 | -114.01797 | 3558 ft | 17 kts | 180° |
| 2026-05-06 01:29 | 51.11208 | -114.01798 | 3558 ft | 16 kts | 180° |
| 2026-05-06 01:30 | 51.11096 | -114.01797 | 3558 ft | 16 kts | 180° |
| 2026-05-06 01:30 | 51.10989 | -114.01798 | 3555 ft | 15 kts | 180° |
| 2026-05-06 01:30 | 51.10888 | -114.01798 | 3558 ft | 14 kts | 180° |
| 2026-05-06 01:30 | 51.10789 | -114.01798 | 3558 ft | 14 kts | 179° |
| 2026-05-06 01:31 | 51.10696 | -114.01798 | 3557 ft | 13 kts | 179° |
| 2026-05-06 01:31 | 51.10606 | -114.01798 | 3558 ft | 13 kts | 180° |
| 2026-05-06 01:31 | 51.10518 | -114.01798 | 3558 ft | 12 kts | 180° |
| 2026-05-06 01:31 | 51.10440 | -114.01798 | 3556 ft | 11 kts | 180° |
| 2026-05-06 01:32 | 51.10365 | -114.01798 | 3558 ft | 11 kts | 180° |
| 2026-05-06 01:32 | 51.10291 | -114.01799 | 3558 ft | 10 kts | 180° |
| 2026-05-06 01:32 | 51.10220 | -114.01799 | 3557 ft | 10 kts | 180° |
| 2026-05-06 01:32 | 51.10149 | -114.01799 | 3557 ft | 12 kts | 180° |
| 2026-05-06 01:33 | 51.10043 | -114.01799 | 3554 ft | 17 kts | 180° |
| 2026-05-06 01:33 | 51.09937 | -114.01799 | 3556 ft | 15 kts | 180° |
| 2026-05-06 01:33 | 51.09838 | -114.01799 | 3556 ft | 14 kts | 180° |
| 2026-05-06 01:33 | 51.09753 | -114.01800 | 3558 ft | 10 kts | 180° |
| 2026-05-06 01:34 | 51.09697 | -114.01847 | 3555 ft | 9 kts | 239° |
| 2026-05-06 01:34 | 51.09691 | -114.01950 | 3559 ft | 9 kts | 270° |
| 2026-05-06 01:34 | 51.09691 | -114.02049 | 3560 ft | 9 kts | 270° |
| 2026-05-06 01:34 | 51.09709 | -114.02136 | 3556 ft | 9 kts | 336° |
| 2026-05-06 01:35 | 51.09782 | -114.02139 | 3557 ft | 14 kts | 360° |
| 2026-05-06 01:35 | 51.10064 | -114.02138 | 3556 ft | 79 kts | 359° |
| 2026-05-06 01:35 | 51.10773 | -114.02134 | 3558 ft | 137 kts | 359° |
| 2026-05-06 01:35 | 51.11799 | -114.02115 | 3622 ft | 178 kts | 4° |
| 2026-05-06 01:36 | 51.13038 | -114.02123 | 4424 ft | 174 kts | 1° |
| 2026-05-06 01:36 | 51.14241 | -114.02171 | 5258 ft | 177 kts | 359° |
| 2026-05-06 01:36 | 51.15523 | -114.02196 | 5754 ft | 193 kts | 1° |
| 2026-05-06 01:36 | 51.16890 | -114.02194 | 6343 ft | 195 kts | 5° |
| 2026-05-06 01:37 | 51.18204 | -114.01506 | 6638 ft | 210 kts | 37° |
| 2026-05-06 01:37 | 51.19093 | -113.99651 | 7056 ft | 219 kts | 67° |
| 2026-05-06 01:37 | 51.19291 | -113.97137 | 7221 ft | 243 kts | 97° |
| 2026-05-06 01:37 | 51.18727 | -113.94547 | 7633 ft | 253 kts | 114° |
| 2026-05-06 01:38 | 51.17940 | -113.91913 | 7912 ft | 272 kts | 111° |
| 2026-05-06 01:38 | 51.17164 | -113.89029 | 8217 ft | 292 kts | 110° |
| 2026-05-06 01:38 | 51.16428 | -113.86017 | 9004 ft | 294 kts | 107° |
| 2026-05-06 01:38 | 51.15732 | -113.82906 | 9687 ft | 302 kts | 105° |
| 2026-05-06 01:39 | 51.15055 | -113.79693 | 10297 ft | 311 kts | 104° |
| 2026-05-06 01:39 | 51.14371 | -113.76287 | 10496 ft | 335 kts | 103° |
| 2026-05-06 01:39 | 51.13654 | -113.72644 | 10748 ft | 354 kts | 103° |
| 2026-05-06 01:39 | 51.12910 | -113.68843 | 11311 ft | 362 kts | 103° |
| 2026-05-06 01:40 | 51.12157 | -113.64993 | 12011 ft | 366 kts | 103° |
| 2026-05-06 01:40 | 51.11398 | -113.61111 | 12761 ft | 370 kts | 102° |
| 2026-05-06 01:40 | 51.10629 | -113.57178 | 13504 ft | 374 kts | 102° |
| 2026-05-06 01:40 | 51.09848 | -113.53187 | 14210 ft | 379 kts | 101° |
| 2026-05-06 01:41 | 51.09061 | -113.49168 | 14906 ft | 383 kts | 101° |
| 2026-05-06 01:41 | 51.08147 | -113.44513 | 15776 ft | 386 kts | 100° |
| 2026-05-06 01:41 | 51.07343 | -113.40418 | 16499 ft | 388 kts | 98° |
| 2026-05-06 01:41 | 51.06772 | -113.36269 | 17196 ft | 382 kts | 88° |
| 2026-05-06 01:42 | 51.06549 | -113.32070 | 17976 ft | 381 kts | 84° |
| 2026-05-06 01:42 | 51.06341 | -113.27862 | 18720 ft | 383 kts | 84° |
| 2026-05-06 01:42 | 51.06108 | -113.23621 | 19301 ft | 388 kts | 85° |
| 2026-05-06 01:42 | 51.05936 | -113.20722 | 19667 ft | 392 kts | 85° |
| 2026-05-06 01:43 | 51.05650 | -113.16382 | 20212 ft | 397 kts | 86° |
| 2026-05-06 01:43 | 51.05347 | -113.12079 | 20767 ft | 401 kts | 86° |
| 2026-05-06 01:43 | 51.05029 | -113.07646 | 21325 ft | 405 kts | 86° |
| 2026-05-06 01:43 | 51.04706 | -113.03173 | 21864 ft | 409 kts | 86° |
| 2026-05-06 01:44 | 51.04381 | -112.98667 | 22389 ft | 413 kts | 87° |
| 2026-05-06 01:44 | 51.04052 | -112.94110 | 22910 ft | 417 kts | 87° |
| 2026-05-06 01:44 | 51.03720 | -112.89513 | 23418 ft | 421 kts | 87° |
| 2026-05-06 01:44 | 51.03384 | -112.84882 | 23899 ft | 425 kts | 87° |
| 2026-05-06 01:45 | 51.03043 | -112.80200 | 24338 ft | 427 kts | 87° |
| 2026-05-06 01:45 | 51.02693 | -112.75436 | 24844 ft | 429 kts | 86° |
| 2026-05-06 01:45 | 51.02346 | -112.70736 | 25318 ft | 431 kts | 86° |
| 2026-05-06 01:45 | 51.01999 | -112.66042 | 25754 ft | 433 kts | 86° |
| 2026-05-06 01:46 | 51.01645 | -112.61281 | 26211 ft | 435 kts | 86° |
| 2026-05-06 01:46 | 51.01286 | -112.56490 | 26628 ft | 437 kts | 86° |
| 2026-05-06 01:46 | 51.00926 | -112.51688 | 27015 ft | 440 kts | 86° |
| 2026-05-06 01:46 | 51.00560 | -112.46834 | 27404 ft | 443 kts | 86° |
| 2026-05-06 01:47 | 51.00191 | -112.41977 | 27790 ft | 445 kts | 86° |
| 2026-05-06 01:47 | 50.99816 | -112.37074 | 28179 ft | 448 kts | 86° |
| 2026-05-06 01:47 | 50.99438 | -112.32166 | 28546 ft | 450 kts | 86° |
| 2026-05-06 01:47 | 50.99056 | -112.27222 | 28911 ft | 453 kts | 86° |
| 2026-05-06 01:48 | 50.98669 | -112.22235 | 29321 ft | 455 kts | 85° |
| 2026-05-06 01:48 | 50.98279 | -112.17259 | 29741 ft | 456 kts | 85° |
| 2026-05-06 01:48 | 50.97885 | -112.12261 | 30087 ft | 458 kts | 85° |
| 2026-05-06 01:48 | 50.97488 | -112.07239 | 30367 ft | 460 kts | 85° |
| 2026-05-06 01:49 | 50.97086 | -112.02176 | 30624 ft | 463 kts | 85° |
| 2026-05-06 01:49 | 50.96680 | -111.97104 | 30943 ft | 464 kts | 85° |
| 2026-05-06 01:49 | 50.96271 | -111.92045 | 31345 ft | 462 kts | 85° |
| 2026-05-06 01:49 | 50.95861 | -111.87018 | 31761 ft | 460 kts | 85° |
| 2026-05-06 01:50 | 50.95450 | -111.81982 | 32112 ft | 460 kts | 85° |
| 2026-05-06 01:50 | 50.95039 | -111.76946 | 32458 ft | 460 kts | 85° |
| 2026-05-06 01:50 | 50.94627 | -111.71932 | 32897 ft | 457 kts | 84° |
| 2026-05-06 01:50 | 50.94215 | -111.66961 | 33424 ft | 454 kts | 84° |
| 2026-05-06 01:51 | 50.93804 | -111.62022 | 33860 ft | 451 kts | 84° |
| 2026-05-06 01:51 | 50.93395 | -111.57087 | 34167 ft | 451 kts | 84° |
| 2026-05-06 01:51 | 50.92985 | -111.52152 | 34389 ft | 453 kts | 84° |
| 2026-05-06 01:51 | 50.92578 | -111.47215 | 34647 ft | 451 kts | 83° |
| 2026-05-06 01:52 | 50.92311 | -111.42289 | 34919 ft | 445 kts | 80° |
| 2026-05-06 01:52 | 50.92157 | -111.37404 | 35165 ft | 443 kts | 79° |
| 2026-05-06 01:52 | 50.92045 | -111.32516 | 35388 ft | 443 kts | 79° |
| 2026-05-06 01:52 | 50.91938 | -111.27633 | 35628 ft | 444 kts | 79° |
| 2026-05-06 01:53 | 50.91821 | -111.22743 | 35875 ft | 444 kts | 80° |
| 2026-05-06 01:53 | 50.91689 | -111.17844 | 36098 ft | 445 kts | 80° |
| 2026-05-06 01:53 | 50.91545 | -111.12952 | 36366 ft | 446 kts | 81° |
| 2026-05-06 01:53 | 50.91392 | -111.08033 | 36575 ft | 447 kts | 81° |
| 2026-05-06 01:54 | 50.91232 | -111.03109 | 36811 ft | 447 kts | 82° |
| 2026-05-06 01:54 | 50.91069 | -110.98196 | 37065 ft | 447 kts | 82° |
| 2026-05-06 01:54 | 50.90903 | -110.93263 | 37227 ft | 449 kts | 82° |
| 2026-05-06 01:54 | 50.90738 | -110.88311 | 37210 ft | 453 kts | 82° |
| 2026-05-06 01:55 | 50.90395 | -110.78390 | 37220 ft | 453 kts | 82° |
| 2026-05-06 01:55 | 50.90039 | -110.68510 | 37218 ft | 446 kts | 82° |
| 2026-05-06 01:56 | 50.89685 | -110.58716 | 37223 ft | 445 kts | 83° |
| 2026-05-06 01:56 | 50.89327 | -110.48949 | 37222 ft | 444 kts | 83° |
| 2026-05-06 01:57 | 50.88959 | -110.39180 | 37221 ft | 444 kts | 83° |
| 2026-05-06 01:57 | 50.88584 | -110.29428 | 37223 ft | 444 kts | 83° |
| 2026-05-06 01:58 | 50.88199 | -110.19663 | 37210 ft | 445 kts | 83° |
| 2026-05-06 01:58 | 50.87805 | -110.09851 | 37243 ft | 447 kts | 83° |
| 2026-05-06 01:59 | 50.87402 | -109.99997 | 37222 ft | 449 kts | 84° |
| 2026-05-06 01:59 | 50.87131 | -109.90164 | 37212 ft | 447 kts | 82° |
| 2026-05-06 02:00 | 50.86974 | -109.80311 | 37217 ft | 448 kts | 81° |
| 2026-05-06 02:00 | 50.86802 | -109.70447 | 37213 ft | 449 kts | 82° |
| 2026-05-06 02:01 | 50.86600 | -109.60540 | 37249 ft | 450 kts | 82° |
| 2026-05-06 02:01 | 50.86380 | -109.50618 | 37213 ft | 452 kts | 83° |
| 2026-05-06 02:02 | 50.86147 | -109.40679 | 37209 ft | 451 kts | 83° |
| 2026-05-06 02:02 | 50.85907 | -109.30753 | 37203 ft | 451 kts | 83° |
| 2026-05-06 02:03 | 50.85660 | -109.20856 | 37209 ft | 450 kts | 83° |
| 2026-05-06 02:03 | 50.85405 | -109.10970 | 37237 ft | 449 kts | 83° |
| 2026-05-06 02:04 | 50.85143 | -109.01089 | 37216 ft | 450 kts | 83° |
| 2026-05-06 02:04 | 50.84872 | -108.91210 | 37203 ft | 449 kts | 83° |
| 2026-05-06 02:05 | 50.84593 | -108.81332 | 37206 ft | 449 kts | 83° |
| 2026-05-06 02:05 | 50.84305 | -108.71463 | 37203 ft | 449 kts | 84° |
| 2026-05-06 02:06 | 50.84010 | -108.61609 | 37203 ft | 448 kts | 84° |
| 2026-05-06 02:06 | 50.83706 | -108.51761 | 37202 ft | 449 kts | 84° |
| 2026-05-06 02:07 | 50.83396 | -108.41962 | 37207 ft | 449 kts | 84° |
| 2026-05-06 02:07 | 50.83076 | -108.32079 | 37211 ft | 450 kts | 84° |
| 2026-05-06 02:08 | 50.82746 | -108.22181 | 37198 ft | 451 kts | 84° |
| 2026-05-06 02:08 | 50.82405 | -108.12208 | 37197 ft | 452 kts | 84° |
| 2026-05-06 02:09 | 50.82058 | -108.02326 | 37202 ft | 453 kts | 85° |
| 2026-05-06 02:09 | 50.81701 | -107.92374 | 37198 ft | 454 kts | 85° |
| 2026-05-06 02:10 | 50.81333 | -107.82393 | 37199 ft | 455 kts | 85° |
| 2026-05-06 02:10 | 50.80957 | -107.72399 | 37196 ft | 455 kts | 85° |
| 2026-05-06 02:11 | 50.80572 | -107.62411 | 37198 ft | 456 kts | 85° |
| 2026-05-06 02:11 | 50.80179 | -107.52399 | 37203 ft | 457 kts | 86° |
| 2026-05-06 02:12 | 50.79778 | -107.42420 | 37207 ft | 458 kts | 86° |
| 2026-05-06 02:12 | 50.79365 | -107.32383 | 37204 ft | 458 kts | 86° |
| 2026-05-06 02:13 | 50.78943 | -107.22338 | 37205 ft | 458 kts | 86° |
| 2026-05-06 02:13 | 50.78512 | -107.12269 | 37201 ft | 458 kts | 86° |
| 2026-05-06 02:14 | 50.78072 | -107.02227 | 37206 ft | 459 kts | 88° |
| 2026-05-06 02:14 | 50.77624 | -106.92165 | 37212 ft | 459 kts | 88° |
| 2026-05-06 02:15 | 50.77167 | -106.82091 | 37200 ft | 459 kts | 88° |
| 2026-05-06 02:15 | 50.76701 | -106.72031 | 37200 ft | 459 kts | 88° |
| 2026-05-06 02:16 | 50.76227 | -106.61979 | 37200 ft | 459 kts | 88° |
| 2026-05-06 02:16 | 50.75744 | -106.51925 | 37209 ft | 459 kts | 88° |
| 2026-05-06 02:17 | 50.75253 | -106.41869 | 37205 ft | 459 kts | 88° |
| 2026-05-06 02:17 | 50.74753 | -106.31822 | 37201 ft | 459 kts | 89° |
| 2026-05-06 02:18 | 50.74244 | -106.21773 | 37200 ft | 459 kts | 89° |
| 2026-05-06 02:18 | 50.73726 | -106.11727 | 37200 ft | 459 kts | 89° |
| 2026-05-06 02:19 | 50.73200 | -106.01671 | 37200 ft | 460 kts | 89° |
| 2026-05-06 02:19 | 50.72668 | -105.91683 | 37199 ft | 460 kts | 89° |
| 2026-05-06 02:20 | 50.71848 | -105.76594 | 37198 ft | 461 kts | 90° |
| 2026-05-06 02:21 | 50.71290 | -105.66520 | 37194 ft | 461 kts | 90° |
| 2026-05-06 02:21 | 50.70723 | -105.56462 | 37212 ft | 461 kts | 90° |
| 2026-05-06 02:22 | 50.70146 | -105.46366 | 37205 ft | 461 kts | 90° |
| 2026-05-06 02:22 | 50.69561 | -105.36280 | 37192 ft | 462 kts | 90° |
| 2026-05-06 02:23 | 50.68967 | -105.26212 | 37192 ft | 462 kts | 90° |
| 2026-05-06 02:23 | 50.68364 | -105.16125 | 37192 ft | 462 kts | 90° |
| 2026-05-06 02:24 | 50.67753 | -105.06053 | 37210 ft | 462 kts | 91° |
| 2026-05-06 02:24 | 50.67134 | -104.95960 | 37198 ft | 462 kts | 91° |
| 2026-05-06 02:25 | 50.66407 | -104.85889 | 37187 ft | 465 kts | 95° |
| 2026-05-06 02:25 | 50.65131 | -104.75892 | 37196 ft | 466 kts | 98° |
| 2026-05-06 02:26 | 50.63734 | -104.65925 | 37191 ft | 466 kts | 98° |
| 2026-05-06 02:26 | 50.62366 | -104.55971 | 37159 ft | 466 kts | 98° |
| 2026-05-06 02:27 | 50.61032 | -104.46047 | 37149 ft | 465 kts | 98° |
| 2026-05-06 02:27 | 50.59914 | -104.37702 | 37152 ft | 465 kts | 98° |
| 2026-05-06 02:28 | 50.58354 | -104.26126 | 37161 ft | 465 kts | 98° |
| 2026-05-06 02:28 | 50.57221 | -104.17790 | 37173 ft | 465 kts | 98° |
| 2026-05-06 02:29 | 50.55862 | -104.07853 | 37174 ft | 465 kts | 98° |
| 2026-05-06 02:29 | 50.54495 | -103.97928 | 37176 ft | 465 kts | 98° |
| 2026-05-06 02:30 | 50.53117 | -103.87992 | 37171 ft | 465 kts | 98° |
| 2026-05-06 02:30 | 50.51729 | -103.78050 | 37180 ft | 465 kts | 98° |
| 2026-05-06 02:31 | 50.50334 | -103.68126 | 37173 ft | 465 kts | 99° |
| 2026-05-06 02:31 | 50.48931 | -103.58205 | 37169 ft | 466 kts | 99° |
| 2026-05-06 02:32 | 50.47518 | -103.48287 | 37166 ft | 466 kts | 99° |
| 2026-05-06 02:32 | 50.46105 | -103.38426 | 37169 ft | 466 kts | 99° |
| 2026-05-06 02:33 | 50.44664 | -103.28441 | 37170 ft | 466 kts | 99° |
| 2026-05-06 02:33 | 50.44189 | -103.25157 | 37170 ft | 466 kts | 99° |
| 2026-05-06 02:34 | 50.41777 | -103.08624 | 37164 ft | 466 kts | 99° |
| 2026-05-06 02:34 | 50.40328 | -102.98773 | 37163 ft | 467 kts | 99° |
| 2026-05-06 02:35 | 50.38860 | -102.88853 | 37161 ft | 467 kts | 99° |
| 2026-05-06 02:35 | 50.37383 | -102.78937 | 37150 ft | 468 kts | 99° |
| 2026-05-06 02:36 | 50.35897 | -102.69025 | 37149 ft | 467 kts | 99° |
| 2026-05-06 02:36 | 50.34403 | -102.59126 | 37148 ft | 467 kts | 99° |
| 2026-05-06 02:37 | 50.32901 | -102.49232 | 37161 ft | 468 kts | 100° |
| 2026-05-06 02:37 | 50.31392 | -102.39347 | 37151 ft | 467 kts | 100° |
| 2026-05-06 02:38 | 50.29870 | -102.29450 | 37139 ft | 467 kts | 100° |
| 2026-05-06 02:38 | 50.28341 | -102.19563 | 37145 ft | 467 kts | 100° |
| 2026-05-06 02:39 | 50.26807 | -102.09703 | 37139 ft | 467 kts | 100° |
| 2026-05-06 02:39 | 50.25265 | -101.99847 | 37158 ft | 467 kts | 100° |
| 2026-05-06 02:40 | 50.23714 | -101.89998 | 37147 ft | 467 kts | 101° |
| 2026-05-06 02:40 | 50.22152 | -101.80138 | 37135 ft | 467 kts | 101° |
| 2026-05-06 02:41 | 50.20584 | -101.70302 | 37137 ft | 467 kts | 101° |
| 2026-05-06 02:41 | 50.19006 | -101.60459 | 37133 ft | 467 kts | 101° |
| 2026-05-06 02:42 | 50.17421 | -101.50633 | 37152 ft | 468 kts | 101° |
| 2026-05-06 02:42 | 50.15826 | -101.40799 | 37132 ft | 468 kts | 101° |
| 2026-05-06 02:43 | 50.14219 | -101.30951 | 37129 ft | 468 kts | 101° |
| 2026-05-06 02:43 | 50.12614 | -101.21171 | 37120 ft | 469 kts | 101° |
| 2026-05-06 02:44 | 50.10990 | -101.11334 | 37127 ft | 469 kts | 101° |
| 2026-05-06 02:44 | 50.09356 | -101.01493 | 37138 ft | 469 kts | 102° |
| 2026-05-06 02:45 | 50.07714 | -100.91663 | 37122 ft | 469 kts | 102° |
| 2026-05-06 02:45 | 50.06063 | -100.81830 | 37120 ft | 469 kts | 102° |
| 2026-05-06 02:46 | 50.04403 | -100.72004 | 37121 ft | 469 kts | 102° |
| 2026-05-06 02:46 | 50.02735 | -100.62185 | 37119 ft | 470 kts | 102° |
| 2026-05-06 02:47 | 50.01058 | -100.52371 | 37135 ft | 469 kts | 102° |
| 2026-05-06 02:47 | 49.99378 | -100.42594 | 37019 ft | 462 kts | 102° |
| 2026-05-06 02:47 | 49.98553 | -100.37826 | 36385 ft | 454 kts | 102° |
| 2026-05-06 02:48 | 49.97734 | -100.33091 | 35540 ft | 454 kts | 102° |
| 2026-05-06 02:48 | 49.96912 | -100.28345 | 34615 ft | 456 kts | 102° |
| 2026-05-06 02:48 | 49.96096 | -100.23644 | 33773 ft | 455 kts | 102° |
| 2026-05-06 02:48 | 49.95264 | -100.18876 | 33209 ft | 450 kts | 102° |
| 2026-05-06 02:49 | 49.94448 | -100.14214 | 32719 ft | 446 kts | 101° |
| 2026-05-06 02:49 | 49.93636 | -100.09578 | 32242 ft | 442 kts | 101° |
| 2026-05-06 02:49 | 49.92833 | -100.05002 | 31809 ft | 438 kts | 101° |
| 2026-05-06 02:49 | 49.92044 | -100.00524 | 31325 ft | 434 kts | 101° |
| 2026-05-06 02:50 | 49.91250 | -99.96028 | 30897 ft | 430 kts | 101° |
| 2026-05-06 02:50 | 49.90680 | -99.91543 | 30555 ft | 418 kts | 91° |
| 2026-05-06 02:50 | 49.90432 | -99.87107 | 30301 ft | 409 kts | 89° |
| 2026-05-06 02:50 | 49.90249 | -99.82733 | 29896 ft | 404 kts | 89° |
| 2026-05-06 02:51 | 49.90093 | -99.78402 | 29462 ft | 399 kts | 89° |
| 2026-05-06 02:51 | 49.89938 | -99.74140 | 29047 ft | 394 kts | 89° |
| 2026-05-06 02:51 | 49.89772 | -99.69930 | 28638 ft | 389 kts | 89° |
| 2026-05-06 02:51 | 49.89594 | -99.65754 | 28235 ft | 385 kts | 89° |
| 2026-05-06 02:52 | 49.89410 | -99.61664 | 27829 ft | 381 kts | 89° |
| 2026-05-06 02:52 | 49.89218 | -99.57559 | 27427 ft | 377 kts | 89° |
| 2026-05-06 02:52 | 49.89025 | -99.53515 | 27038 ft | 374 kts | 90° |
| 2026-05-06 02:52 | 49.88831 | -99.49516 | 26622 ft | 371 kts | 90° |
| 2026-05-06 02:53 | 49.88635 | -99.45535 | 26226 ft | 369 kts | 90° |
| 2026-05-06 02:53 | 49.88439 | -99.41595 | 25834 ft | 366 kts | 89° |
| 2026-05-06 02:53 | 49.88243 | -99.37671 | 25446 ft | 363 kts | 89° |
| 2026-05-06 02:53 | 49.88048 | -99.33781 | 25056 ft | 361 kts | 89° |
| 2026-05-06 02:54 | 49.87852 | -99.29922 | 24677 ft | 358 kts | 89° |
| 2026-05-06 02:54 | 49.87658 | -99.26113 | 24292 ft | 356 kts | 89° |
| 2026-05-06 02:54 | 49.87463 | -99.22300 | 23907 ft | 354 kts | 89° |
| 2026-05-06 02:54 | 49.87267 | -99.18500 | 23492 ft | 352 kts | 89° |
| 2026-05-06 02:55 | 49.87071 | -99.14727 | 23057 ft | 350 kts | 89° |
| 2026-05-06 02:55 | 49.86875 | -99.10996 | 22676 ft | 346 kts | 89° |
| 2026-05-06 02:55 | 49.86680 | -99.07289 | 22310 ft | 343 kts | 90° |
| 2026-05-06 02:55 | 49.86486 | -99.03618 | 21907 ft | 341 kts | 90° |
| 2026-05-06 02:56 | 49.86291 | -98.99963 | 21530 ft | 339 kts | 90° |
| 2026-05-06 02:56 | 49.86098 | -98.96340 | 21150 ft | 337 kts | 90° |
| 2026-05-06 02:56 | 49.85904 | -98.92737 | 20785 ft | 334 kts | 90° |
| 2026-05-06 02:56 | 49.85710 | -98.89157 | 20417 ft | 333 kts | 90° |
| 2026-05-06 02:57 | 49.85516 | -98.85595 | 20061 ft | 331 kts | 90° |
| 2026-05-06 02:57 | 49.85321 | -98.82034 | 19694 ft | 332 kts | 90° |
| 2026-05-06 02:57 | 49.85126 | -98.78469 | 19331 ft | 333 kts | 90° |
| 2026-05-06 02:57 | 49.84928 | -98.74865 | 18968 ft | 339 kts | 91° |
| 2026-05-06 02:58 | 49.84726 | -98.71196 | 18588 ft | 345 kts | 91° |
| 2026-05-06 02:58 | 49.84520 | -98.67487 | 18166 ft | 345 kts | 91° |
| 2026-05-06 02:58 | 49.84311 | -98.63800 | 17742 ft | 342 kts | 91° |
| 2026-05-06 02:58 | 49.84102 | -98.60139 | 17329 ft | 340 kts | 91° |
| 2026-05-06 02:59 | 49.83894 | -98.56509 | 16926 ft | 338 kts | 91° |
| 2026-05-06 02:59 | 49.83687 | -98.52902 | 16541 ft | 335 kts | 91° |
| 2026-05-06 02:59 | 49.83480 | -98.49317 | 16167 ft | 332 kts | 91° |
| 2026-05-06 02:59 | 49.83272 | -98.45762 | 15807 ft | 330 kts | 92° |
| 2026-05-06 03:00 | 49.83006 | -98.42249 | 15549 ft | 328 kts | 94° |
| 2026-05-06 03:00 | 49.82709 | -98.38746 | 15289 ft | 327 kts | 94° |
| 2026-05-06 03:00 | 49.82409 | -98.35264 | 15032 ft | 326 kts | 94° |
| 2026-05-06 03:00 | 49.82112 | -98.31768 | 14785 ft | 329 kts | 94° |
| 2026-05-06 03:01 | 49.81815 | -98.28243 | 14532 ft | 330 kts | 94° |
| 2026-05-06 03:01 | 49.81523 | -98.24747 | 14212 ft | 326 kts | 94° |
| 2026-05-06 03:01 | 49.81233 | -98.21274 | 13852 ft | 324 kts | 94° |
| 2026-05-06 03:01 | 49.80947 | -98.17824 | 13466 ft | 322 kts | 94° |
| 2026-05-06 03:02 | 49.80662 | -98.14399 | 13103 ft | 320 kts | 94° |
| 2026-05-06 03:02 | 49.80379 | -98.10993 | 12733 ft | 318 kts | 94° |
| 2026-05-06 03:02 | 49.80098 | -98.07613 | 12372 ft | 316 kts | 94° |
| 2026-05-06 03:02 | 49.79817 | -98.04253 | 12022 ft | 313 kts | 94° |
| 2026-05-06 03:03 | 49.79539 | -98.00927 | 11682 ft | 311 kts | 94° |
| 2026-05-06 03:03 | 49.79260 | -97.97605 | 11332 ft | 310 kts | 94° |
| 2026-05-06 03:03 | 49.78985 | -97.94338 | 10996 ft | 308 kts | 94° |
| 2026-05-06 03:03 | 49.78706 | -97.91041 | 10653 ft | 306 kts | 94° |
| 2026-05-06 03:04 | 49.78430 | -97.87789 | 10440 ft | 300 kts | 94° |
| 2026-05-06 03:04 | 49.78160 | -97.84631 | 10307 ft | 292 kts | 94° |
| 2026-05-06 03:04 | 49.77896 | -97.81572 | 10165 ft | 280 kts | 94° |
| 2026-05-06 03:04 | 49.77645 | -97.78670 | 10031 ft | 265 kts | 94° |
| 2026-05-06 03:05 | 49.77407 | -97.75922 | 9786 ft | 257 kts | 94° |
| 2026-05-06 03:05 | 49.77169 | -97.73163 | 9540 ft | 255 kts | 94° |
| 2026-05-06 03:05 | 49.76936 | -97.70434 | 9286 ft | 258 kts | 93° |
| 2026-05-06 03:05 | 49.76718 | -97.67657 | 9066 ft | 270 kts | 92° |
| 2026-05-06 03:06 | 49.76479 | -97.64740 | 8771 ft | 274 kts | 93° |
| 2026-05-06 03:06 | 49.76229 | -97.61853 | 8474 ft | 267 kts | 94° |
| 2026-05-06 03:06 | 49.75981 | -97.59040 | 8185 ft | 259 kts | 94° |
| 2026-05-06 03:06 | 49.75740 | -97.56326 | 7924 ft | 251 kts | 94° |
| 2026-05-06 03:07 | 49.75507 | -97.53693 | 7653 ft | 244 kts | 93° |
| 2026-05-06 03:07 | 49.75277 | -97.51085 | 7257 ft | 244 kts | 93° |
| 2026-05-06 03:07 | 49.75049 | -97.48500 | 6861 ft | 242 kts | 94° |
| 2026-05-06 03:07 | 49.74821 | -97.45920 | 6482 ft | 242 kts | 94° |
| 2026-05-06 03:08 | 49.74593 | -97.43354 | 6085 ft | 241 kts | 94° |
| 2026-05-06 03:08 | 49.74366 | -97.40803 | 5712 ft | 239 kts | 94° |
| 2026-05-06 03:08 | 49.74140 | -97.38269 | 5441 ft | 235 kts | 94° |
| 2026-05-06 03:08 | 49.73918 | -97.35801 | 5182 ft | 227 kts | 94° |
| 2026-05-06 03:09 | 49.73704 | -97.33436 | 4941 ft | 216 kts | 94° |
| 2026-05-06 03:09 | 49.73502 | -97.31197 | 4678 ft | 205 kts | 94° |
| 2026-05-06 03:09 | 49.73311 | -97.29070 | 4394 ft | 196 kts | 93° |
| 2026-05-06 03:09 | 49.73128 | -97.27031 | 4124 ft | 189 kts | 93° |
| 2026-05-06 03:10 | 49.72947 | -97.25027 | 3858 ft | 189 kts | 93° |
| 2026-05-06 03:10 | 49.72765 | -97.23011 | 3600 ft | 190 kts | 93° |
| 2026-05-06 03:10 | 49.72583 | -97.21005 | 3508 ft | 187 kts | 93° |
| 2026-05-06 03:10 | 49.72400 | -97.18990 | 3523 ft | 191 kts | 93° |
| 2026-05-06 03:11 | 49.72254 | -97.16983 | 3496 ft | 180 kts | 81° |
| 2026-05-06 03:11 | 49.72666 | -97.15414 | 3456 ft | 148 kts | 46° |
| 2026-05-06 03:11 | 49.73332 | -97.14197 | 3541 ft | 160 kts | 43° |
| 2026-05-06 03:11 | 49.74095 | -97.12859 | 3545 ft | 164 kts | 44° |
| 2026-05-06 03:12 | 49.74812 | -97.11594 | 3389 ft | 147 kts | 43° |
| 2026-05-06 03:12 | 49.75459 | -97.10455 | 3047 ft | 140 kts | 43° |
| 2026-05-06 03:12 | 49.76101 | -97.09332 | 3031 ft | 141 kts | 43° |
| 2026-05-06 03:12 | 49.76870 | -97.08423 | 3017 ft | 138 kts | 16° |
| 2026-05-06 03:13 | 49.77811 | -97.08149 | 3007 ft | 137 kts | 356° |
| 2026-05-06 03:13 | 49.78719 | -97.08447 | 3000 ft | 132 kts | 334° |
| 2026-05-06 03:13 | 49.79446 | -97.09285 | 3019 ft | 132 kts | 326° |
| 2026-05-06 03:13 | 49.80191 | -97.10107 | 3015 ft | 131 kts | 324° |
| 2026-05-06 03:14 | 49.80905 | -97.10989 | 3008 ft | 131 kts | 322° |
| 2026-05-06 03:14 | 49.81363 | -97.11594 | 3002 ft | 131 kts | 321° |
| 2026-05-06 03:14 | 49.82059 | -97.12534 | 2886 ft | 133 kts | 320° |
| 2026-05-06 03:14 | 49.82751 | -97.13481 | 2693 ft | 132 kts | 320° |
| 2026-05-06 03:15 | 49.83433 | -97.14419 | 2509 ft | 130 kts | 320° |
| 2026-05-06 03:15 | 49.84109 | -97.15350 | 2312 ft | 131 kts | 320° |
| 2026-05-06 03:15 | 49.84778 | -97.16286 | 2151 ft | 132 kts | 319° |
| 2026-05-06 03:15 | 49.85446 | -97.17236 | 1936 ft | 130 kts | 319° |
| 2026-05-06 03:16 | 49.86098 | -97.18153 | 1844 ft | 126 kts | 320° |
| 2026-05-06 03:16 | 49.86760 | -97.19036 | 1651 ft | 127 kts | 322° |
| 2026-05-06 03:16 | 49.87438 | -97.19934 | 1423 ft | 130 kts | 319° |
| 2026-05-06 03:16 | 49.88121 | -97.20861 | 1220 ft | 130 kts | 317° |
| 2026-05-06 03:17 | 49.88786 | -97.21792 | 1057 ft | 129 kts | 317° |
| 2026-05-06 03:17 | 49.89448 | -97.22702 | 884 ft | 130 kts | 318° |
| 2026-05-06 03:17 | 49.90091 | -97.23576 | 789 ft | 114 kts | 318° |
| 2026-05-06 03:17 | 49.90581 | -97.24247 | 788 ft | 77 kts | 319° |
| 2026-05-06 03:18 | 49.90854 | -97.24619 | 787 ft | 42 kts | 319° |
| 2026-05-06 03:18 | 49.91027 | -97.24854 | 790 ft | 24 kts | 318° |
| 2026-05-06 03:18 | 49.91135 | -97.25002 | 789 ft | 19 kts | 319° |
| 2026-05-06 03:18 | 49.91225 | -97.25119 | 789 ft | 15 kts | 328° |
| 2026-05-06 03:19 | 49.91304 | -97.25057 | 787 ft | 12 kts | 48° |
| 2026-05-06 03:19 | 49.91348 | -97.24950 | 786 ft | 12 kts | 84° |
| 2026-05-06 03:19 | 49.91338 | -97.24830 | 785 ft | 11 kts | 99° |
| 2026-05-06 03:19 | 49.91332 | -97.24775 | 785 ft | 10 kts | 99° |
| 2026-05-06 03:20 | 49.91311 | -97.24554 | 787 ft | 11 kts | 98° |
| 2026-05-06 03:20 | 49.91297 | -97.24416 | 785 ft | 15 kts | 98° |
| 2026-05-06 03:20 | 49.91282 | -97.24255 | 785 ft | 15 kts | 99° |
| 2026-05-06 03:21 | 49.91268 | -97.24112 | 785 ft | 13 kts | 98° |
| 2026-05-06 03:21 | 49.91252 | -97.23956 | 785 ft | 16 kts | 99° |
| 2026-05-06 03:21 | 49.91232 | -97.23791 | 787 ft | 15 kts | 104° |
| 2026-05-06 03:21 | 49.91212 | -97.23647 | 786 ft | 10 kts | 98° |
| 2026-05-06 03:22 | 49.91164 | -97.23574 | 786 ft | 10 kts | 155° |
| 2026-05-06 03:22 | 49.91102 | -97.23527 | 785 ft | 10 kts | 154° |
| 2026-05-06 03:22 | 49.91040 | -97.23482 | 787 ft | 10 kts | 154° |
| 2026-05-06 03:22 | 49.90971 | -97.23431 | 785 ft | 13 kts | 156° |
| 2026-05-06 03:23 | 49.90877 | -97.23363 | 785 ft | 17 kts | 156° |
| 2026-05-06 03:23 | 49.90779 | -97.23295 | 785 ft | 15 kts | 156° |
| 2026-05-06 03:23 | 49.90694 | -97.23225 | 785 ft | 14 kts | 133° |
| 2026-05-06 03:23 | 49.90687 | -97.23113 | 785 ft | 10 kts | 78° |
| 2026-05-06 03:24 | 49.90701 | -97.23007 | 785 ft | 10 kts | 78° |
| 2026-05-06 03:24 | 49.90716 | -97.22887 | 785 ft | 13 kts | 78° |
| 2026-05-06 03:24 | 49.90737 | -97.22731 | 785 ft | 15 kts | 78° |
| 2026-05-06 03:24 | 49.90748 | -97.22657 | 785 ft | 3 kts | 78° |
| 2026-05-06 03:25 | 49.90752 | -97.22619 | 785 ft | 5 kts | 79° |
| 2026-05-06 03:25 | 49.90727 | -97.22572 | 785 ft | 7 kts | 168° |
| 2026-05-06 03:25 | 49.90693 | -97.22563 | 785 ft | 0 kts | 171° |
| 2026-05-06 03:25 | 49.90689 | -97.22562 | 785 ft | 1 kts | 171° |
| 2026-05-06 03:26 | 49.90683 | -97.22561 | 785 ft | 0 kts | 171° |